Time;durP1;ratioP1;P1;durP2;ratioP2;P2;SDS_P1;SDS_P2;PMS_P1;PMS_P2;Temp;Humidity;BMP_temperature;BMP_pressure;BME280_temperature;BME280_humidity;BME280_pressure;Samples;Min_cycle;Max_cycle;Signal;HPM_P1;HPM_P2
2022/03/19 00:01:47;;;;;;;14.40;4.93;;;5.50;99.90;;;;;;5181379;28;20511;-46
2022/03/19 00:04:17;;;;;;;23.43;5.17;;;5.50;99.90;;;;;;5171796;28;20214;-46
2022/03/19 00:06:48;;;;;;;32.40;5.97;;;5.40;99.90;;;;;;5183188;28;20191;-46
2022/03/19 00:09:19;;;;;;;20.40;5.63;;;5.30;99.90;;;;;;5178643;28;20271;-45
2022/03/19 00:11:50;;;;;;;12.53;4.70;;;5.30;99.90;;;;;;5161282;28;20526;-46
2022/03/19 00:14:20;;;;;;;14.20;4.30;;;5.30;99.90;;;;;;5174299;28;20198;-45
2022/03/19 00:16:52;;;;;;;17.87;4.63;;;5.20;99.90;;;;;;5173421;28;20235;-46
2022/03/19 00:19:23;;;;;;;9.43;3.90;;;5.20;99.90;;;;;;5169937;28;20394;-49
2022/03/19 00:21:54;;;;;;;12.70;4.47;;;5.10;99.90;;;;;;5184289;22;20497;-51
2022/03/19 00:24:24;;;;;;;11.10;4.53;;;5.00;99.90;;;;;;5177581;28;20960;-52
2022/03/19 00:26:55;;;;;;;19.27;4.23;;;5.10;99.90;;;;;;5181435;28;20281;-51
2022/03/19 00:29:26;;;;;;;14.33;4.30;;;5.00;99.90;;;;;;5176216;28;20381;-51
2022/03/19 00:31:56;;;;;;;9.80;4.50;;;5.00;99.90;;;;;;5178151;28;20202;-50
2022/03/19 00:34:27;;;;;;;10.13;4.13;;;4.90;99.90;;;;;;5181265;28;20186;-51
2022/03/19 00:36:58;;;;;;;14.43;4.17;;;5.00;99.90;;;;;;5179228;28;20182;-50
2022/03/19 00:39:28;;;;;;;21.50;3.77;;;4.90;99.90;;;;;;5218510;28;20195;-51
2022/03/19 00:41:59;;;;;;;23.73;3.97;;;4.90;99.90;;;;;;5170242;28;20461;-50
2022/03/19 00:44:30;;;;;;;11.23;5.00;;;4.80;99.90;;;;;;5166949;28;20185;-49
2022/03/19 00:47:01;;;;;;;16.23;4.07;;;4.80;99.90;;;;;;5179052;28;20187;-50
2022/03/19 00:49:31;;;;;;;16.53;4.87;;;4.70;99.90;;;;;;5171502;28;20180;-50
2022/03/19 00:52:04;;;;;;;12.10;3.43;;;4.70;99.90;;;;;;5186998;28;20540;-49
2022/03/19 00:54:34;;;;;;;11.50;4.37;;;4.70;99.90;;;;;;5186417;28;20185;-49
2022/03/19 00:57:05;;;;;;;16.73;4.07;;;4.60;99.90;;;;;;5187384;28;20498;-50
2022/03/19 00:59:35;;;;;;;20.63;5.03;;;4.60;99.90;;;;;;5186286;28;20276;-50
2022/03/19 01:02:06;;;;;;;14.90;4.40;;;4.50;99.90;;;;;;5180622;28;20240;-49
2022/03/19 01:04:36;;;;;;;14.73;3.83;;;4.50;99.90;;;;;;5175081;28;20193;-56
2022/03/19 01:07:07;;;;;;;6.93;3.73;;;4.50;99.90;;;;;;5168133;28;20540;-50
2022/03/19 01:09:37;;;;;;;36.57;5.03;;;4.40;99.90;;;;;;5173377;28;20206;-50
2022/03/19 01:12:08;;;;;;;12.10;4.20;;;4.30;99.90;;;;;;5184182;28;20192;-51
2022/03/19 01:14:39;;;;;;;18.33;4.23;;;4.40;99.90;;;;;;5175726;28;20192;-51
2022/03/19 01:17:09;;;;;;;12.10;4.07;;;4.40;99.90;;;;;;5176904;28;20516;-50
2022/03/19 01:19:58;;;;;;;6.70;3.60;;;4.30;99.90;;;;;;5180833;28;20184;-50
2022/03/19 01:22:29;;;;;;;15.10;5.33;;;4.20;99.90;;;;;;5166567;28;20246;-50
2022/03/19 01:25:04;;;;;;;16.20;4.60;;;4.10;99.90;;;;;;5171960;28;20437;-51
2022/03/19 01:27:36;;;;;;;9.63;5.07;;;4.20;99.90;;;;;;5174948;28;20443;-50
2022/03/19 01:30:08;;;;;;;8.73;4.00;;;4.10;99.90;;;;;;5170783;28;20456;-50
2022/03/19 01:32:40;;;;;;;12.87;4.53;;;4.10;99.90;;;;;;5167816;28;20518;-50
2022/03/19 01:35:11;;;;;;;11.57;5.47;;;4.00;99.90;;;;;;5181042;28;20411;-52
2022/03/19 01:37:42;;;;;;;15.60;4.43;;;4.00;99.90;;;;;;5182864;28;20560;-52
2022/03/19 01:40:14;;;;;;;14.80;4.47;;;3.90;99.90;;;;;;5178261;28;20459;-52
2022/03/19 01:42:47;;;;;;;15.10;4.17;;;4.00;99.90;;;;;;5179916;28;20442;-52
2022/03/19 01:45:20;;;;;;;11.80;4.57;;;4.00;99.90;;;;;;5182901;28;20431;-52
2022/03/19 01:47:53;;;;;;;8.33;4.10;;;3.90;99.90;;;;;;5182750;28;20411;-52
2022/03/19 01:50:25;;;;;;;20.67;4.77;;;3.90;99.90;;;;;;5176331;28;20539;-52
2022/03/19 01:52:56;;;;;;;13.20;5.13;;;3.90;99.90;;;;;;5179204;28;20468;-50
2022/03/19 01:55:28;;;;;;;10.70;4.13;;;3.80;99.90;;;;;;5175653;28;20435;-51
2022/03/19 01:58:01;;;;;;;12.80;5.03;;;3.80;99.90;;;;;;5172920;28;20864;-52
2022/03/19 02:00:32;;;;;;;11.63;4.33;;;3.80;99.90;;;;;;5177085;28;21066;-51
2022/03/19 02:03:04;;;;;;;9.23;3.47;;;3.80;99.90;;;;;;5177189;28;20521;-51
2022/03/19 02:05:36;;;;;;;12.87;5.07;;;3.70;99.90;;;;;;5158123;28;20200;-51
2022/03/19 02:08:07;;;;;;;12.93;4.63;;;3.70;99.90;;;;;;5180360;28;20480;-51
2022/03/19 02:10:38;;;;;;;9.50;5.00;;;3.60;99.90;;;;;;5179467;28;20448;-50
2022/03/19 02:13:09;;;;;;;15.80;5.37;;;3.70;99.90;;;;;;5181826;28;20293;-51
2022/03/19 02:15:40;;;;;;;13.97;5.00;;;3.70;99.90;;;;;;5182905;28;20431;-50
2022/03/19 02:18:11;;;;;;;15.10;4.63;;;3.70;99.90;;;;;;5179147;28;20837;-51
2022/03/19 02:20:41;;;;;;;16.27;4.60;;;3.70;99.90;;;;;;5184243;28;20296;-51
2022/03/19 02:26:11;;;;;;;11.33;4.47;;;3.70;99.90;;;;;;5185602;28;20187;-50
2022/03/19 02:28:42;;;;;;;14.07;4.50;;;3.70;99.90;;;;;;5171143;28;20730;-49
2022/03/19 02:31:12;;;;;;;18.67;4.70;;;3.60;99.90;;;;;;5174758;28;20458;-51
2022/03/19 02:33:43;;;;;;;18.47;4.80;;;3.60;99.90;;;;;;5185035;28;20743;-50
2022/03/19 02:36:13;;;;;;;8.70;4.30;;;3.50;99.90;;;;;;5182805;28;20181;-50
2022/03/19 02:38:45;;;;;;;16.40;4.73;;;3.60;99.90;;;;;;5172496;28;20326;-52
2022/03/19 02:41:16;;;;;;;11.03;4.70;;;3.60;99.90;;;;;;5183942;28;20257;-50
2022/03/19 02:43:48;;;;;;;16.03;4.23;;;3.60;99.90;;;;;;5184563;28;20435;-48
2022/03/19 02:46:34;;;;;;;11.37;4.90;;;3.50;99.90;;;;;;5176678;28;20192;-51
2022/03/19 02:49:05;;;;;;;12.23;5.73;;;3.50;99.90;;;;;;5182466;28;20432;-50
2022/03/19 02:51:37;;;;;;;17.07;5.43;;;3.60;99.90;;;;;;5179300;28;20466;-51
2022/03/19 02:54:11;;;;;;;10.93;5.43;;;3.50;99.90;;;;;;5183331;28;20200;-49
2022/03/19 02:56:43;;;;;;;18.00;6.00;;;3.50;99.90;;;;;;5152465;28;20440;-50
2022/03/19 02:59:22;;;;;;;16.20;5.10;;;3.50;99.90;;;;;;5184713;28;20434;-50
2022/03/19 03:01:55;;;;;;;13.97;5.37;;;3.50;99.90;;;;;;5172940;28;20462;-50
2022/03/19 03:04:28;;;;;;;14.33;5.93;;;3.40;99.90;;;;;;5169106;28;20440;-50
2022/03/19 03:07:02;;;;;;;16.10;5.60;;;3.40;99.90;;;;;;5179670;28;20444;-49
2022/03/19 03:09:33;;;;;;;19.43;5.73;;;3.40;99.90;;;;;;5175027;28;20446;-50
2022/03/19 03:12:04;;;;;;;10.10;5.87;;;3.30;99.90;;;;;;5183680;28;20949;-50
2022/03/19 03:14:34;;;;;;;15.43;5.33;;;3.30;99.90;;;;;;5179602;28;20192;-49
2022/03/19 03:17:05;;;;;;;23.20;5.63;;;3.30;99.90;;;;;;5178570;28;20580;-49
2022/03/19 03:19:36;;;;;;;15.73;5.83;;;3.20;99.90;;;;;;5174088;28;20173;-51
2022/03/19 03:22:09;;;;;;;28.17;6.33;;;3.30;99.90;;;;;;5173270;28;20239;-50
2022/03/19 03:24:40;;;;;;;19.60;5.63;;;3.20;99.90;;;;;;5181007;28;20489;-50
2022/03/19 03:27:10;;;;;;;16.47;5.73;;;3.20;99.90;;;;;;5174747;28;20425;-50
2022/03/19 03:29:41;;;;;;;26.33;6.03;;;3.20;99.90;;;;;;5170650;28;20234;-50
2022/03/19 03:32:12;;;;;;;21.03;5.87;;;3.10;99.90;;;;;;5182610;28;20187;-48
2022/03/19 03:34:42;;;;;;;22.10;5.97;;;3.10;99.90;;;;;;5183903;28;20435;-50
2022/03/19 03:37:13;;;;;;;15.63;5.70;;;3.10;99.90;;;;;;5175898;28;20207;-50
2022/03/19 03:39:43;;;;;;;15.43;5.13;;;3.00;99.90;;;;;;5175872;28;20173;-51
2022/03/19 03:42:15;;;;;;;18.43;5.27;;;3.00;99.90;;;;;;5172273;28;20181;-50
2022/03/19 03:44:46;;;;;;;17.07;6.47;;;2.90;99.90;;;;;;5183849;28;20169;-50
2022/03/19 03:47:17;;;;;;;13.60;6.30;;;2.80;99.90;;;;;;5174852;28;20476;-51
2022/03/19 03:49:47;;;;;;;21.07;5.77;;;2.80;99.90;;;;;;5184239;28;20537;-51
2022/03/19 03:52:18;;;;;;;10.60;5.50;;;2.80;99.90;;;;;;5178620;28;20679;-51
2022/03/19 03:54:48;;;;;;;24.23;5.30;;;2.80;99.90;;;;;;5174263;28;20185;-50
2022/03/19 03:57:19;;;;;;;16.87;6.33;;;2.70;99.90;;;;;;5161461;28;20192;-50
2022/03/19 03:59:50;;;;;;;16.40;6.17;;;2.70;99.90;;;;;;5172223;28;20192;-51
2022/03/19 04:02:21;;;;;;;21.67;5.20;;;2.60;99.90;;;;;;5178811;28;20185;-49
2022/03/19 04:04:51;;;;;;;16.23;5.50;;;2.50;99.90;;;;;;5171254;28;20435;-50
2022/03/19 04:07:23;;;;;;;14.20;5.20;;;2.50;99.90;;;;;;5173274;28;20185;-50
2022/03/19 04:09:54;;;;;;;15.93;5.47;;;2.50;99.90;;;;;;5176790;28;20238;-50
2022/03/19 04:12:24;;;;;;;16.70;5.40;;;2.50;99.90;;;;;;5182306;28;20472;-50
2022/03/19 04:14:55;;;;;;;22.53;5.30;;;2.50;99.90;;;;;;5178384;28;20229;-49
2022/03/19 04:17:25;;;;;;;17.73;5.67;;;2.40;99.90;;;;;;5184456;28;20264;-50
2022/03/19 04:19:56;;;;;;;12.30;3.53;;;2.40;99.90;;;;;;5183543;28;20225;-49
2022/03/19 04:22:44;;;;;;;19.00;6.57;;;2.40;99.90;;;;;;5167546;28;20698;-50
2022/03/19 04:25:17;;;;;;;19.83;6.13;;;2.40;99.90;;;;;;5167378;28;20216;-49
2022/03/19 04:27:53;;;;;;;11.73;4.90;;;2.30;99.90;;;;;;5183291;28;20458;-50
2022/03/19 04:30:27;;;;;;;10.47;5.60;;;2.20;99.90;;;;;;5180155;28;20894;-51
2022/03/19 04:33:00;;;;;;;9.93;4.93;;;2.20;99.90;;;;;;5178165;28;20493;-51
2022/03/19 04:38:22;;;;;;;9.97;4.70;;;2.20;99.90;;;;;;5174852;28;20809;-48
2022/03/19 04:40:53;;;;;;;10.10;5.20;;;2.10;99.90;;;;;;5182367;28;20542;-50
2022/03/19 04:43:23;;;;;;;16.50;4.73;;;2.20;99.90;;;;;;5174974;28;20534;-50
2022/03/19 04:45:54;;;;;;;13.03;4.80;;;2.10;99.90;;;;;;5173398;28;20192;-49
2022/03/19 04:48:24;;;;;;;17.40;5.40;;;2.10;99.90;;;;;;5173055;28;20223;-50
2022/03/19 04:50:55;;;;;;;14.70;5.10;;;2.10;99.90;;;;;;5181195;28;20200;-49
2022/03/19 04:53:25;;;;;;;20.23;4.83;;;2.10;99.90;;;;;;5183879;28;20196;-51
2022/03/19 04:55:56;;;;;;;20.43;5.47;;;2.00;99.90;;;;;;5177779;28;20177;-50
2022/03/19 04:58:26;;;;;;;13.33;5.13;;;2.00;99.90;;;;;;5183110;28;20240;-49
2022/03/19 05:00:57;;;;;;;4.47;3.70;;;1.90;99.90;;;;;;5185180;28;20279;-51
2022/03/19 05:03:28;;;;;;;22.37;5.77;;;1.90;99.90;;;;;;5169204;28;20189;-49
2022/03/19 05:05:58;;;;;;;10.53;4.10;;;1.90;99.90;;;;;;5174064;28;20185;-50
2022/03/19 05:08:29;;;;;;;15.07;5.20;;;1.90;99.90;;;;;;5182382;28;20597;-50
2022/03/19 05:11:15;;;;;;;11.10;4.97;;;1.90;99.90;;;;;;5180148;28;20562;-51
2022/03/19 05:13:48;;;;;;;16.23;6.33;;;2.00;99.90;;;;;;5171994;28;20192;-50
2022/03/19 05:16:19;;;;;;;17.33;6.20;;;2.00;99.90;;;;;;5175155;28;20915;-51
2022/03/19 05:18:49;;;;;;;7.40;3.87;;;2.00;99.90;;;;;;5178118;28;20421;-49
2022/03/19 05:21:20;;;;;;;17.67;5.30;;;2.00;99.90;;;;;;5181950;28;20212;-51
2022/03/19 05:23:50;;;;;;;17.23;6.40;;;2.00;99.90;;;;;;5183325;28;20277;-52
2022/03/19 05:26:21;;;;;;;15.43;4.50;;;2.00;99.90;;;;;;5170342;28;20675;-49
2022/03/19 05:28:54;;;;;;;12.13;4.57;;;2.00;99.90;;;;;;5176191;28;20237;-50
2022/03/19 05:31:27;;;;;;;12.07;4.97;;;2.10;99.90;;;;;;5173937;28;20201;-51
2022/03/19 05:36:47;;;;;;;21.13;5.90;;;2.20;99.90;;;;;;5172678;28;20833;-51
2022/03/19 05:39:18;;;;;;;12.30;4.30;;;2.20;99.90;;;;;;5172374;28;20439;-50
2022/03/19 05:41:48;;;;;;;13.23;4.60;;;2.20;99.90;;;;;;5175756;28;20196;-49
2022/03/19 05:44:19;;;;;;;12.80;4.07;;;2.30;99.90;;;;;;5175858;28;20188;-51
2022/03/19 05:46:50;;;;;;;7.80;4.00;;;2.30;99.90;;;;;;5171084;28;20230;-50
2022/03/19 05:49:20;;;;;;;11.30;4.10;;;2.50;99.90;;;;;;5172107;28;20184;-51
2022/03/19 05:51:51;;;;;;;21.83;5.53;;;2.80;99.90;;;;;;5180376;28;20209;-51
2022/03/19 05:54:23;;;;;;;21.50;5.00;;;3.00;99.90;;;;;;5180056;28;20211;-49
2022/03/19 05:56:53;;;;;;;16.73;4.57;;;3.30;99.90;;;;;;5187355;28;20441;-50
2022/03/19 05:59:24;;;;;;;17.10;4.83;;;3.90;99.90;;;;;;5181796;28;20444;-48
2022/03/19 06:01:55;;;;;;;5.27;3.60;;;4.50;99.90;;;;;;5172871;28;20197;-49
2022/03/19 06:04:25;;;;;;;7.80;3.93;;;4.70;99.90;;;;;;5179607;28;20196;-50
2022/03/19 06:06:56;;;;;;;8.53;3.80;;;4.60;99.90;;;;;;5172618;28;20690;-49
2022/03/19 06:09:27;;;;;;;10.70;3.60;;;4.50;99.90;;;;;;5174036;28;20942;-50
2022/03/19 06:11:57;;;;;;;12.97;4.30;;;4.40;99.90;;;;;;5185058;28;20243;-51
2022/03/19 06:14:28;;;;;;;12.83;4.60;;;4.50;99.90;;;;;;5178370;28;20718;-50
2022/03/19 06:16:58;;;;;;;11.30;4.77;;;4.80;99.90;;;;;;5165714;28;20581;-51
2022/03/19 06:19:29;;;;;;;5.33;4.60;;;5.80;99.90;;;;;;5181872;28;20268;-50
2022/03/19 06:22:00;;;;;;;11.33;4.47;;;7.40;99.90;;;;;;5276598;23;20316;-45
2022/03/19 06:24:30;;;;;;;18.93;4.97;;;8.90;99.90;;;;;;5286817;27;20173;-45
2022/03/19 06:27:01;;;;;;;12.80;3.27;;;10.40;91.30;;;;;;5287661;28;20185;-45
2022/03/19 06:29:31;;;;;;;12.33;4.23;;;11.30;74.70;;;;;;5270638;28;20675;-47
2022/03/19 06:32:02;;;;;;;12.67;3.13;;;12.20;63.40;;;;;;5289934;28;20224;-47
2022/03/19 06:34:33;;;;;;;20.13;3.90;;;12.50;57.60;;;;;;5294953;27;20604;-46
2022/03/19 06:37:22;;;;;;;21.27;3.97;;;12.90;56.00;;;;;;5283874;27;20188;-47
2022/03/19 06:39:57;;;;;;;11.90;3.50;;;13.40;53.80;;;;;;5281158;27;20642;-46
2022/03/19 06:42:27;;;;;;;5.23;3.10;;;13.60;52.20;;;;;;5267519;28;20431;-46
2022/03/19 06:44:58;;;;;;;8.73;3.73;;;14.00;51.60;;;;;;5288720;28;20438;-47
2022/03/19 06:47:30;;;;;;;10.13;3.87;;;14.40;49.50;;;;;;5287052;28;20173;-46
2022/03/19 06:50:00;;;;;;;12.70;3.50;;;14.50;48.30;;;;;;5293583;27;20173;-47
2022/03/19 06:52:33;;;;;;;17.23;3.13;;;14.60;47.80;;;;;;5276349;28;20863;-46
2022/03/19 06:55:04;;;;;;;11.83;2.57;;;14.80;47.10;;;;;;5276522;28;20267;-47
2022/03/19 06:57:34;;;;;;;14.57;2.70;;;15.10;47.70;;;;;;5274407;28;20510;-45
2022/03/19 07:00:06;;;;;;;8.23;2.87;;;15.40;45.50;;;;;;5279544;27;20442;-48
2022/03/19 07:02:50;;;;;;;5.40;2.80;;;15.30;45.10;;;;;;5289643;28;20544;-45
2022/03/19 07:05:26;;;;;;;11.70;3.10;;;15.20;45.00;;;;;;5274223;28;20525;-46
2022/03/19 07:07:58;;;;;;;9.77;3.10;;;15.50;45.40;;;;;;5280517;28;20936;-45
2022/03/19 07:10:29;;;;;;;11.40;3.03;;;15.80;44.30;;;;;;5267129;28;20452;-45
2022/03/19 07:13:00;;;;;;;13.80;3.60;;;15.90;43.50;;;;;;5291907;28;20839;-47
2022/03/19 07:15:30;;;;;;;5.33;2.97;;;16.00;43.90;;;;;;5271475;28;20521;-46
2022/03/19 07:18:02;;;;;;;9.63;3.10;;;16.30;43.00;;;;;;5290409;27;20449;-46
2022/03/19 07:20:32;;;;;;;18.93;3.33;;;16.60;42.40;;;;;;5269527;28;20312;-46
2022/03/19 07:23:06;;;;;;;10.90;3.20;;;16.60;42.40;;;;;;5283229;28;20502;-46
2022/03/19 07:25:39;;;;;;;8.93;2.77;;;16.70;42.10;;;;;;5283722;28;20275;-46
2022/03/19 07:28:15;;;;;;;10.60;2.77;;;16.80;41.80;;;;;;5292633;28;20845;-45
2022/03/19 07:30:47;;;;;;;9.43;2.50;;;17.30;41.20;;;;;;5274678;28;20457;-46
2022/03/19 07:33:17;;;;;;;7.77;3.50;;;17.00;41.60;;;;;;5290354;27;20482;-46
2022/03/19 07:35:48;;;;;;;7.20;2.90;;;16.50;41.60;;;;;;5286372;27;20419;-47
2022/03/19 07:38:19;;;;;;;11.00;2.90;;;16.00;42.60;;;;;;5287992;28;20189;-46
2022/03/19 07:43:39;;;;;;;9.93;2.97;;;14.00;45.50;;;;;;5285158;27;20250;-45
2022/03/19 07:46:10;;;;;;;4.13;2.30;;;13.10;47.70;;;;;;5274075;28;20419;-46
2022/03/19 07:48:41;;;;;;;15.93;2.70;;;13.40;48.30;;;;;;5280027;28;20190;-47
2022/03/19 07:51:11;;;;;;;11.03;2.60;;;13.80;48.30;;;;;;5284929;27;20523;-45
2022/03/19 07:53:42;;;;;;;7.10;2.43;;;14.30;46.60;;;;;;5275929;28;20630;-46
2022/03/19 07:56:12;;;;;;;8.50;1.93;;;14.10;46.80;;;;;;5289571;28;20237;-45
2022/03/19 07:58:45;;;;;;;12.30;2.70;;;14.10;47.10;;;;;;5270251;28;20174;-46
2022/03/19 08:01:17;;;;;;;7.30;2.40;;;14.30;47.30;;;;;;5281639;28;20204;-46
2022/03/19 08:03:48;;;;;;;3.60;2.17;;;14.30;47.40;;;;;;5293907;27;20446;-46
2022/03/19 08:06:19;;;;;;;10.80;2.63;;;14.30;47.10;;;;;;5272958;28;20431;-47
2022/03/19 08:08:50;;;;;;;3.80;2.10;;;13.20;48.60;;;;;;5285881;28;20506;-45
2022/03/19 08:11:20;;;;;;;6.57;2.80;;;12.30;51.10;;;;;;5284773;27;20856;-47
2022/03/19 08:13:51;;;;;;;6.10;2.00;;;11.50;53.30;;;;;;5286335;28;20474;-46
2022/03/19 08:16:22;;;;;;;5.23;2.47;;;10.70;55.90;;;;;;5284790;27;20184;-46
2022/03/19 08:18:54;;;;;;;8.63;2.20;;;9.80;64.30;;;;;;5271903;28;20170;-46
2022/03/19 08:21:24;;;;;;;7.73;2.77;;;8.90;83.90;;;;;;5270936;28;20819;-46
2022/03/19 08:23:55;;;;;;;5.70;2.20;;;8.30;95.20;;;;;;5258957;27;20431;-45
2022/03/19 08:26:25;;;;;;;9.67;2.83;;;7.80;99.90;;;;;;5292459;28;20182;-46
2022/03/19 08:28:56;;;;;;;4.50;2.23;;;7.60;99.90;;;;;;5290258;27;20211;-46
2022/03/19 08:31:26;;;;;;;2.83;2.20;;;7.60;99.90;;;;;;5290354;28;20292;-46
2022/03/19 08:33:57;;;;;;;6.67;2.27;;;7.80;99.90;;;;;;5288347;28;20205;-45
2022/03/19 08:36:28;;;;;;;15.67;3.33;;;7.90;99.90;;;;;;5275577;28;20216;-48
2022/03/19 08:41:47;;;;;;;8.50;3.30;;;7.70;99.90;;;;;;5287241;28;20334;-45
2022/03/19 08:44:18;;;;;;;6.40;2.10;;;7.50;99.90;;;;;;5276335;28;20456;-47
2022/03/19 08:46:48;;;;;;;14.53;2.80;;;7.40;99.90;;;;;;5286849;27;20731;-46
2022/03/19 08:49:20;;;;;;;10.90;3.30;;;7.30;99.90;;;;;;5289724;28;20214;-46
2022/03/19 08:51:51;;;;;;;4.13;2.03;;;7.50;99.90;;;;;;5286567;28;20458;-46
2022/03/19 08:54:22;;;;;;;7.93;1.97;;;7.60;99.90;;;;;;5288324;27;20318;-45
2022/03/19 08:56:52;;;;;;;8.20;2.50;;;7.80;99.90;;;;;;5288448;28;20200;-46
2022/03/19 08:59:23;;;;;;;13.00;2.10;;;7.60;99.90;;;;;;5267140;28;20610;-46
2022/03/19 09:01:54;;;;;;;8.63;2.60;;;7.40;99.90;;;;;;5273718;28;20263;-45
2022/03/19 09:04:24;;;;;;;10.97;3.10;;;7.20;99.90;;;;;;5278448;28;20212;-46
2022/03/19 09:06:55;;;;;;;15.20;2.80;;;7.20;99.90;;;;;;5271325;28;20568;-46
2022/03/19 09:09:25;;;;;;;2.93;1.90;;;7.30;99.90;;;;;;5279708;27;20181;-47
2022/03/19 09:11:56;;;;;;;8.57;2.40;;;7.50;99.90;;;;;;5284641;28;20212;-47
2022/03/19 09:14:27;;;;;;;6.30;2.70;;;7.60;99.90;;;;;;5274284;28;20219;-47
2022/03/19 09:16:57;;;;;;;10.03;2.80;;;7.70;99.90;;;;;;5273731;28;20271;-47
2022/03/19 09:19:28;;;;;;;9.77;2.20;;;7.80;99.90;;;;;;5272497;28;20181;-47
2022/03/19 09:22:00;;;;;;;11.33;2.43;;;7.90;99.90;;;;;;5282394;28;20731;-48
2022/03/19 09:24:30;;;;;;;3.43;2.37;;;8.10;99.90;;;;;;5283357;28;20173;-47
2022/03/19 09:27:01;;;;;;;6.53;2.13;;;8.00;99.90;;;;;;5278793;28;20415;-48
2022/03/19 09:29:32;;;;;;;3.03;1.80;;;8.10;99.90;;;;;;5289386;28;20212;-46
2022/03/19 09:32:02;;;;;;;6.20;2.50;;;8.10;99.90;;;;;;5273444;28;20258;-45
2022/03/19 09:34:33;;;;;;;8.93;3.07;;;8.10;99.90;;;;;;5291156;28;20463;-46
2022/03/19 09:37:04;;;;;;;4.13;2.40;;;8.20;99.90;;;;;;5261803;28;20181;-47
2022/03/19 09:39:34;;;;;;;5.13;2.40;;;8.30;99.90;;;;;;5288622;28;20174;-46
2022/03/19 09:42:09;;;;;;;7.67;2.50;;;8.40;99.90;;;;;;5268165;28;20291;-50
2022/03/19 09:44:43;;;;;;;7.73;2.23;;;8.50;99.90;;;;;;5279430;28;20727;-46
2022/03/19 09:47:13;;;;;;;6.03;2.20;;;8.70;99.90;;;;;;5277560;28;20936;-48
2022/03/19 09:49:44;;;;;;;5.83;2.17;;;8.80;99.90;;;;;;5271808;28;20430;-46
2022/03/19 09:52:17;;;;;;;5.93;2.20;;;9.00;98.10;;;;;;5267862;28;20207;-46
2022/03/19 09:54:47;;;;;;;10.70;3.10;;;8.90;96.20;;;;;;5263712;28;20181;-46
2022/03/19 09:57:18;;;;;;;12.10;2.03;;;8.80;96.70;;;;;;5287258;28;20423;-47
2022/03/19 09:59:48;;;;;;;8.23;2.70;;;8.90;95.10;;;;;;5288906;28;20260;-46
2022/03/19 10:02:19;;;;;;;5.37;2.10;;;8.80;95.90;;;;;;5285967;28;20197;-46
2022/03/19 10:04:56;;;;;;;4.63;2.63;;;8.80;95.40;;;;;;5277661;28;20256;-46
2022/03/19 10:10:18;;;;;;;7.90;2.57;;;8.90;95.30;;;;;;5286254;28;20446;-46
2022/03/19 10:12:48;;;;;;;8.93;2.37;;;8.90;96.30;;;;;;5263451;28;20463;-50
2022/03/19 10:15:21;;;;;;;4.27;2.27;;;9.00;96.00;;;;;;5270379;28;20678;-46
2022/03/19 10:17:59;;;;;;;8.90;2.77;;;9.00;95.00;;;;;;5267106;28;20188;-47
2022/03/19 10:20:34;;;;;;;11.53;2.20;;;9.00;94.70;;;;;;5279716;28;20499;-45
2022/03/19 10:23:05;;;;;;;4.50;2.17;;;9.10;93.30;;;;;;5281295;28;20438;-47
2022/03/19 10:25:36;;;;;;;5.97;2.67;;;9.20;93.10;;;;;;5270986;28;20438;-47
2022/03/19 10:28:11;;;;;;;4.60;3.33;;;9.20;91.80;;;;;;5289320;28;20182;-45
2022/03/19 10:30:41;;;;;;;12.50;2.60;;;9.20;91.70;;;;;;5286847;28;20455;-49
2022/03/19 10:33:12;;;;;;;7.87;3.33;;;9.30;91.50;;;;;;5269991;28;20788;-50
2022/03/19 10:35:43;;;;;;;15.13;3.20;;;9.30;89.40;;;;;;5281994;28;20274;-46
2022/03/19 10:38:19;;;;;;;5.33;2.80;;;9.50;90.40;;;;;;5269123;28;20173;-47
2022/03/19 10:40:52;;;;;;;6.80;3.20;;;9.70;85.10;;;;;;5268315;28;20200;-45
2022/03/19 10:43:23;;;;;;;18.60;2.97;;;9.90;81.80;;;;;;5269089;28;20439;-47
2022/03/19 10:45:54;;;;;;;8.80;2.67;;;10.00;79.90;;;;;;5268406;28;20428;-45
2022/03/19 10:48:27;;;;;;;5.87;2.70;;;10.00;78.00;;;;;;5272627;28;20442;-46
2022/03/19 10:50:58;;;;;;;3.90;2.50;;;9.90;78.10;;;;;;5273837;28;20212;-46
2022/03/19 10:53:28;;;;;;;10.60;2.87;;;9.90;76.10;;;;;;5272353;28;20482;-45
2022/03/19 10:56:01;;;;;;;20.83;3.47;;;9.90;76.00;;;;;;5287926;27;20442;-47
2022/03/19 10:58:31;;;;;;;6.73;2.83;;;9.90;72.20;;;;;;5270680;28;20653;-46
2022/03/19 11:01:02;;;;;;;3.60;2.93;;;9.90;72.50;;;;;;5287483;27;20451;-45
2022/03/19 11:03:38;;;;;;;10.07;3.27;;;10.00;71.80;;;;;;5287174;28;20173;-46
2022/03/19 11:06:09;;;;;;;12.50;3.43;;;10.20;72.60;;;;;;5284490;28;20406;-47
2022/03/19 11:08:43;;;;;;;11.20;2.33;;;10.30;70.80;;;;;;5286461;27;20763;-46
2022/03/19 11:11:22;;;;;;;12.93;3.30;;;10.70;67.70;;;;;;5277186;28;20509;-46
2022/03/19 11:13:54;;;;;;;7.83;3.33;;;10.70;66.30;;;;;;5289244;27;20470;-46
2022/03/19 11:16:26;;;;;;;7.63;3.53;;;10.80;66.90;;;;;;5287953;27;20430;-46
2022/03/19 11:18:58;;;;;;;5.23;3.67;;;11.00;62.40;;;;;;5288693;28;20428;-48
2022/03/19 11:21:31;;;;;;;3.97;2.83;;;10.90;61.00;;;;;;5289255;27;20453;-47
2022/03/19 11:24:12;;;;;;;10.83;2.90;;;10.90;60.60;;;;;;5284925;28;20445;-47
2022/03/19 11:26:43;;;;;;;6.83;2.73;;;10.80;60.40;;;;;;5281996;28;20442;-46
2022/03/19 11:29:14;;;;;;;6.23;2.27;;;10.60;60.40;;;;;;5271025;28;20423;-45
2022/03/19 11:31:58;;;;;;;6.57;2.53;;;10.60;61.00;;;;;;5285447;28;20209;-47
2022/03/19 11:34:43;;;;;;;4.30;2.50;;;10.50;60.00;;;;;;5280961;28;20703;-47
2022/03/19 11:37:14;;;;;;;6.10;2.83;;;10.20;62.10;;;;;;5266187;28;21587;-48
2022/03/19 11:40:26;;;;;;;2.97;2.50;;;10.00;64.30;;;;;;5263241;27;20931;-46
2022/03/19 11:43:07;;;;;;;15.77;2.90;;;9.70;67.30;;;;;;5256682;28;20188;-45
2022/03/19 11:45:50;;;;;;;7.63;2.80;;;9.50;68.10;;;;;;5265782;28;20423;-46
2022/03/19 11:48:36;;;;;;;6.47;3.53;;;9.60;69.30;;;;;;5269724;28;20445;-47
2022/03/19 11:51:24;;;;;;;6.43;3.00;;;9.60;70.60;;;;;;5271503;28;20849;-48
2022/03/19 11:54:01;;;;;;;9.10;3.17;;;9.70;71.80;;;;;;5272453;28;20474;-48
2022/03/19 11:56:41;;;;;;;7.00;3.63;;;9.70;72.00;;;;;;5271577;28;20804;-47
2022/03/19 11:59:23;;;;;;;10.20;4.40;;;9.60;73.20;;;;;;5252533;28;21357;-46
2022/03/19 12:02:09;;;;;;;8.70;4.47;;;9.70;75.20;;;;;;5255318;28;21052;-45
2022/03/19 12:04:47;;;;;;;16.30;4.87;;;9.50;77.20;;;;;;5260704;28;20444;-46
2022/03/19 12:07:39;;;;;;;5.33;4.40;;;9.50;79.00;;;;;;5279806;28;20438;-45
2022/03/19 12:10:14;;;;;;;10.17;5.20;;;9.60;79.50;;;;;;5278239;27;20430;-46
2022/03/19 12:12:45;;;;;;;11.00;5.17;;;9.70;80.80;;;;;;5275284;28;20466;-47
2022/03/19 12:15:34;;;;;;;16.50;6.83;;;9.80;78.50;;;;;;5284446;27;20546;-49
2022/03/19 12:18:23;;;;;;;12.73;5.20;;;10.00;77.10;;;;;;5284520;28;20795;-47
2022/03/19 12:20:58;;;;;;;12.30;5.50;;;10.00;75.00;;;;;;5267159;28;20526;-46
2022/03/19 12:24:01;;;;;;;7.60;5.73;;;10.00;76.80;;;;;;5266532;28;20438;-47
2022/03/19 12:26:41;;;;;;;14.83;5.47;;;9.80;79.10;;;;;;5248695;28;20550;-46
2022/03/19 12:29:16;;;;;;;9.27;6.10;;;9.70;79.80;;;;;;5269119;28;20447;-47
2022/03/19 12:31:49;;;;;;;18.80;6.77;;;9.60;81.70;;;;;;5267543;27;20459;-49
2022/03/19 12:34:29;;;;;;;10.30;6.57;;;9.60;83.20;;;;;;5276578;27;20498;-46
2022/03/19 12:37:03;;;;;;;25.30;6.87;;;9.40;86.00;;;;;;5254240;28;20435;-45
2022/03/19 12:39:33;;;;;;;17.87;6.80;;;9.40;88.90;;;;;;5256577;28;20967;-47
2022/03/19 12:42:04;;;;;;;12.40;6.67;;;9.60;89.20;;;;;;5274349;27;20516;-47
2022/03/19 12:44:36;;;;;;;10.70;7.33;;;9.80;85.00;;;;;;5283098;27;20265;-47
2022/03/19 12:47:08;;;;;;;10.57;7.63;;;9.80;83.50;;;;;;5269530;27;20177;-48
2022/03/19 12:49:38;;;;;;;13.53;7.70;;;9.60;80.60;;;;;;5277340;27;20942;-47
2022/03/19 12:52:11;;;;;;;21.03;9.13;;;9.40;84.10;;;;;;5279132;28;20459;-48
2022/03/19 12:54:47;;;;;;;17.13;10.50;;;9.40;82.10;;;;;;5282471;28;20192;-47
2022/03/19 12:57:24;;;;;;;15.07;9.63;;;9.30;81.60;;;;;;5280238;27;20427;-47
2022/03/19 13:00:00;;;;;;;18.33;10.80;;;9.30;83.60;;;;;;5259037;28;20422;-48
2022/03/19 13:02:31;;;;;;;16.80;10.23;;;9.30;78.00;;;;;;5267563;28;20434;-47
2022/03/19 13:05:02;;;;;;;17.77;12.30;;;9.40;77.80;;;;;;5280629;28;20419;-48
2022/03/19 13:07:32;;;;;;;18.07;12.87;;;9.50;69.70;;;;;;5277344;28;20230;-47
2022/03/19 13:10:13;;;;;;;16.67;12.10;;;9.60;67.40;;;;;;5261140;28;20606;-46
2022/03/19 13:12:44;;;;;;;20.10;11.17;;;9.50;69.30;;;;;;5277833;28;20196;-47
2022/03/19 13:15:16;;;;;;;19.50;10.60;;;9.60;73.50;;;;;;5263294;28;20488;-49
2022/03/19 13:17:46;;;;;;;17.20;11.73;;;9.50;75.00;;;;;;5269039;28;20169;-47
2022/03/19 13:20:18;;;;;;;18.50;13.07;;;9.50;69.60;;;;;;5261301;28;20451;-47
2022/03/19 13:22:49;;;;;;;18.90;12.40;;;9.60;68.00;;;;;;5267331;28;20237;-46
2022/03/19 13:25:20;;;;;;;18.07;11.63;;;9.70;66.20;;;;;;5282253;28;20445;-46
2022/03/19 13:27:50;;;;;;;20.27;11.93;;;9.70;63.70;;;;;;5274320;28;20492;-47
2022/03/19 13:30:21;;;;;;;22.87;13.47;;;9.70;60.80;;;;;;5264956;28;20462;-47
2022/03/19 13:32:56;;;;;;;21.30;11.87;;;9.70;61.30;;;;;;5281721;28;20196;-46